createdAt,value
2018-01-27T00:00:08.584Z,37.40
2018-01-27T00:02:36.102Z,48.13
2018-01-27T00:05:04.404Z,44.33
2018-01-27T00:07:31.958Z,43.10
2018-01-27T00:10:00.275Z,39.60
2018-01-27T00:12:28.585Z,36.30
2018-01-27T00:14:56.173Z,41.77
2018-01-27T00:17:23.705Z,40.23
2018-01-27T00:19:51.236Z,40.23
2018-01-27T00:22:18.836Z,39.33
2018-01-27T00:24:46.371Z,36.47
2018-01-27T00:27:14.658Z,39.63
2018-01-27T00:29:42.226Z,38.67
2018-01-27T00:32:09.751Z,46.30
2018-01-27T00:34:37.284Z,33.50
2018-01-27T00:37:05.627Z,36.73
2018-01-27T00:39:33.150Z,41.77
2018-01-27T00:42:00.692Z,33.63
2018-01-27T00:44:28.254Z,38.63
2018-01-27T00:46:55.774Z,39.23
2018-01-27T00:49:24.066Z,34.40
2018-01-27T00:51:51.617Z,32.27
2018-01-27T00:54:19.918Z,36.50
2018-01-27T00:56:47.439Z,37.87
2018-01-27T00:59:15.772Z,33.43
2018-01-27T01:01:44.080Z,33.90
2018-01-27T01:04:11.672Z,37.43
2018-01-27T01:06:39.955Z,40.20
2018-01-27T01:09:08.258Z,33.60
2018-01-27T01:11:36.549Z,36.03
2018-01-27T01:14:04.895Z,34.73
2018-01-27T01:16:32.511Z,36.80
2018-01-27T01:19:00.024Z,33.83
2018-01-27T01:21:28.329Z,34.70
2018-01-27T01:23:55.900Z,35.93
2018-01-27T01:26:24.189Z,33.63
2018-01-27T01:28:52.548Z,33.23
2018-01-27T01:31:20.848Z,29.70
2018-01-27T01:33:48.360Z,37.87
2018-01-27T01:36:15.950Z,36.60
2018-01-27T01:38:43.502Z,37.60
2018-01-27T01:41:11.031Z,35.40
2018-01-27T01:43:44.165Z,34.27
2018-01-27T01:46:12.447Z,35.40
2018-01-27T01:48:39.992Z,34.47
2018-01-27T01:51:08.319Z,32.70
2018-01-27T01:53:35.851Z,33.00
2018-01-27T01:56:03.367Z,36.57
2018-01-27T01:58:30.921Z,34.93
2018-01-27T02:00:58.489Z,32.30
2018-01-27T02:03:26.808Z,38.80
2018-01-27T02:05:54.362Z,37.50
2018-01-27T02:08:21.903Z,35.37
2018-01-27T02:10:49.422Z,35.97
2018-01-27T02:13:17.831Z,32.53
2018-01-27T02:15:45.361Z,33.73
2018-01-27T02:18:12.888Z,37.10
2018-01-27T02:20:40.449Z,35.47
2018-01-27T02:23:07.992Z,30.63
2018-01-27T02:25:36.278Z,36.07
2018-01-27T02:28:04.589Z,38.67
2018-01-27T02:30:32.884Z,33.73
2018-01-27T02:33:01.161Z,32.73
2018-01-27T02:35:28.712Z,38.70
2018-01-27T02:37:56.230Z,32.90
2018-01-27T02:40:23.756Z,33.20
2018-01-27T02:42:51.312Z,34.17
2018-01-27T02:45:19.609Z,32.27
2018-01-27T02:47:47.905Z,27.40
2018-01-27T02:50:15.452Z,31.60
2018-01-27T02:52:42.975Z,30.60
2018-01-27T02:55:10.529Z,30.23
2018-01-27T02:57:38.069Z,31.13
2018-01-27T03:00:06.423Z,30.37
2018-01-27T03:02:33.974Z,33.07
2018-01-27T03:05:01.529Z,32.13
2018-01-27T03:07:29.815Z,29.57
2018-01-27T03:09:57.347Z,30.87
2018-01-27T03:12:24.906Z,36.73
2018-01-27T03:14:53.207Z,33.17
2018-01-27T03:17:21.512Z,32.43
2018-01-27T03:19:49.817Z,34.10
2018-01-27T03:22:17.404Z,51.60
2018-01-27T03:24:45.681Z,49.80
2018-01-27T03:27:13.245Z,56.63
2018-01-27T03:29:40.814Z,52.30
2018-01-27T03:32:08.347Z,57.60
2018-01-27T03:34:36.664Z,62.13
2018-01-27T03:37:04.951Z,58.07
2018-01-27T03:39:33.267Z,59.23
2018-01-27T03:42:01.576Z,63.50
2018-01-27T03:44:29.110Z,69.00
2018-01-27T03:46:56.650Z,72.50
2018-01-27T03:49:24.214Z,72.43
2018-01-27T03:51:52.507Z,66.63
2018-01-27T03:54:20.808Z,71.83
2018-01-27T03:56:49.089Z,66.40
2018-01-27T03:59:16.630Z,66.80
2018-01-27T04:01:44.226Z,73.17
2018-01-27T04:04:11.764Z,75.00
2018-01-27T04:06:40.070Z,61.10
2018-01-27T04:09:08.376Z,67.33
2018-01-27T04:11:36.683Z,68.43
2018-01-27T04:14:04.981Z,69.03
2018-01-27T04:16:33.279Z,54.90
2018-01-27T04:19:01.605Z,50.97
2018-01-27T04:21:29.129Z,60.13
2018-01-27T04:23:57.461Z,48.53
2018-01-27T04:26:25.768Z,51.43
2018-01-27T04:28:54.080Z,53.80
2018-01-27T04:31:22.409Z,45.60
2018-01-27T04:33:49.935Z,40.17
2018-01-27T04:36:18.326Z,36.97
2018-01-27T04:38:46.628Z,39.47
2018-01-27T04:41:14.180Z,35.60
2018-01-27T04:43:41.735Z,34.77
2018-01-27T04:46:10.036Z,43.53
2018-01-27T04:48:38.471Z,37.60
2018-01-27T04:51:06.033Z,35.80
2018-01-27T04:53:34.322Z,37.90
2018-01-27T04:56:02.629Z,40.53
2018-01-27T04:58:30.944Z,36.57
2018-01-27T05:00:59.270Z,41.70
2018-01-27T05:03:26.809Z,49.17
2018-01-27T05:05:55.125Z,41.67
2018-01-27T05:08:23.426Z,42.67
2018-01-27T05:10:52.493Z,48.00
2018-01-27T05:13:20.032Z,54.03
2018-01-27T05:15:47.585Z,52.77
2018-01-27T05:18:15.147Z,50.07
2018-01-27T05:20:42.661Z,55.93
2018-01-27T05:23:11.734Z,49.17
2018-01-27T05:25:39.276Z,45.97
2018-01-27T05:28:06.840Z,43.97
2018-01-27T05:30:34.390Z,49.70
2018-01-27T05:33:02.698Z,44.13
2018-01-27T05:35:30.416Z,40.87
2018-01-27T05:37:58.704Z,43.90
2018-01-27T05:40:27.012Z,37.40
2018-01-27T05:42:55.351Z,35.93
2018-01-27T05:45:22.869Z,36.60
2018-01-27T05:47:50.437Z,37.87
2018-01-27T05:50:18.078Z,31.30
2018-01-27T05:52:46.428Z,29.53
2018-01-27T05:55:13.985Z,31.53
2018-01-27T05:57:42.291Z,29.57
2018-01-27T06:00:10.607Z,27.87
2018-01-27T06:02:38.142Z,29.93
2018-01-27T06:05:06.436Z,30.07
2018-01-27T06:07:34.092Z,32.43
2018-01-27T06:10:02.388Z,30.63
2018-01-27T06:12:30.706Z,35.30
2018-01-27T06:14:59.127Z,31.67
2018-01-27T06:17:27.444Z,30.97
2018-01-27T06:19:55.750Z,36.73
2018-01-27T06:22:23.316Z,30.80
2018-01-27T06:24:52.548Z,39.90
2018-01-27T06:27:20.135Z,36.50
2018-01-27T06:29:47.659Z,37.80
2018-01-27T06:32:15.268Z,34.63
2018-01-27T06:34:43.657Z,37.13
2018-01-27T06:37:11.199Z,31.00
2018-01-27T06:39:39.605Z,34.67
2018-01-27T06:42:07.180Z,40.60
2018-01-27T06:44:35.498Z,54.37
2018-01-27T06:47:03.152Z,64.30
2018-01-27T06:49:30.723Z,56.17
2018-01-27T06:51:58.247Z,61.63
2018-01-27T06:54:25.806Z,63.27
2018-01-27T06:56:53.363Z,58.87
2018-01-27T06:59:21.459Z,49.20
2018-01-27T07:01:49.733Z,56.60
2018-01-27T07:04:18.201Z,54.00
2018-01-27T07:06:45.757Z,51.57
2018-01-27T07:09:13.315Z,51.10
2018-01-27T07:11:41.598Z,51.53
2018-01-27T07:14:09.157Z,58.30
2018-01-27T07:16:36.831Z,44.33
2018-01-27T07:19:04.406Z,45.47
2018-01-27T07:21:31.930Z,61.97
2018-01-27T07:24:00.285Z,67.50
2018-01-27T07:26:28.586Z,62.40
2018-01-27T07:28:56.922Z,73.47
2018-01-27T07:31:24.451Z,78.03
2018-01-27T07:33:52.741Z,81.73
2018-01-27T07:36:21.107Z,76.87
2018-01-27T07:38:48.642Z,67.40
2018-01-27T07:41:17.181Z,69.33
2018-01-27T07:43:44.723Z,79.20
2018-01-27T07:46:13.044Z,86.27
2018-01-27T07:48:40.647Z,76.23
2018-01-27T07:51:08.314Z,82.63
2018-01-27T07:53:36.593Z,85.10
2018-01-27T07:56:04.898Z,85.63
2018-01-27T07:58:33.203Z,82.80
2018-01-27T08:01:01.562Z,88.40
2018-01-27T08:03:29.131Z,91.70
2018-01-27T08:05:57.557Z,109.23
2018-01-27T08:08:25.078Z,104.53
2018-01-27T08:10:52.626Z,104.10
2018-01-27T08:13:20.264Z,110.30
2018-01-27T08:15:47.798Z,108.27
2018-01-27T08:18:15.358Z,106.97
2018-01-27T08:20:42.903Z,100.90
2018-01-27T08:23:11.186Z,102.60
2018-01-27T08:25:38.785Z,105.57
2018-01-27T08:28:07.116Z,103.70
2018-01-27T08:30:34.652Z,97.37
2018-01-27T08:33:02.228Z,99.30
2018-01-27T08:35:29.797Z,98.37
2018-01-27T08:37:57.331Z,105.97
2018-01-27T08:40:24.889Z,98.83
2018-01-27T08:42:52.433Z,95.63
2018-01-27T08:45:20.093Z,99.50
2018-01-27T08:47:47.635Z,103.50
2018-01-27T08:50:15.237Z,93.03
2018-01-27T08:52:42.800Z,101.60
2018-01-27T08:55:10.356Z,90.13
2018-01-27T08:57:38.647Z,86.70
2018-01-27T09:00:07.001Z,93.37
2018-01-27T09:02:34.623Z,93.37
2018-01-27T09:05:02.139Z,95.47
2018-01-27T09:07:30.450Z,98.43
2018-01-27T09:09:57.989Z,107.63
2018-01-27T09:12:25.518Z,108.60
2018-01-27T09:14:53.800Z,100.97
2018-01-27T09:17:22.138Z,107.73
2018-01-27T09:19:49.680Z,107.47
2018-01-27T09:22:18.042Z,93.50
2018-01-27T09:24:45.648Z,102.27
2018-01-27T09:27:13.312Z,98.00
2018-01-27T09:29:40.896Z,92.37
2018-01-27T09:32:08.514Z,99.90
2018-01-27T09:34:36.867Z,102.67
2018-01-27T09:37:04.412Z,95.77
2018-01-27T09:39:32.751Z,96.63
2018-01-27T09:42:00.297Z,94.73
2018-01-27T09:44:28.634Z,95.73
2018-01-27T09:46:56.186Z,88.80
2018-01-27T09:49:24.470Z,94.93
2018-01-27T09:51:52.026Z,99.93
2018-01-27T09:54:19.566Z,100.13
2018-01-27T09:56:47.941Z,91.97
2018-01-27T09:59:15.525Z,99.07
2018-01-27T10:01:43.095Z,94.93
2018-01-27T10:04:10.662Z,84.77
2018-01-27T10:06:38.177Z,84.50
2018-01-27T10:09:05.755Z,99.33
2018-01-27T10:11:33.341Z,86.37
2018-01-27T10:14:01.353Z,80.77
2018-01-27T10:16:29.649Z,73.93
2018-01-27T10:18:57.939Z,85.30
2018-01-27T10:21:25.521Z,89.77
2018-01-27T10:23:53.054Z,91.30
2018-01-27T10:26:20.578Z,87.97
2018-01-27T10:28:48.163Z,90.77
2018-01-27T10:31:15.715Z,83.77
2018-01-27T10:33:44.043Z,85.13
2018-01-27T10:36:11.628Z,92.13
2018-01-27T10:38:39.167Z,89.93
2018-01-27T10:41:07.482Z,81.80
2018-01-27T10:43:35.013Z,70.60
2018-01-27T10:46:02.646Z,79.53
2018-01-27T10:48:30.221Z,90.80
2018-01-27T10:50:57.824Z,82.30
2018-01-27T10:53:25.407Z,88.50
2018-01-27T10:55:52.960Z,94.23
2018-01-27T10:58:21.294Z,82.33
2018-01-27T11:00:48.833Z,83.33
2018-01-27T11:03:16.419Z,83.40
2018-01-27T11:05:44.706Z,80.37
2018-01-27T11:08:12.254Z,87.83
2018-01-27T11:10:39.862Z,107.13
2018-01-27T11:13:07.353Z,91.00
2018-01-27T11:15:34.905Z,86.73
2018-01-27T11:18:02.421Z,81.27
2018-01-27T11:20:29.956Z,98.27
2018-01-27T11:22:58.263Z,99.90
2018-01-27T11:25:25.858Z,92.70
2018-01-27T11:27:53.393Z,100.63
2018-01-27T11:30:20.943Z,91.70
2018-01-27T11:32:48.466Z,82.87
2018-01-27T11:35:16.002Z,94.40
2018-01-27T11:37:43.537Z,78.37
2018-01-27T11:40:11.092Z,85.33
2018-01-27T11:42:38.629Z,80.10
2018-01-27T11:45:06.981Z,82.47
2018-01-27T11:47:34.581Z,84.20
2018-01-27T11:50:02.148Z,86.77
2018-01-27T11:52:29.714Z,79.53
2018-01-27T11:54:57.299Z,74.70
2018-01-27T11:57:25.791Z,69.73
2018-01-27T11:59:53.317Z,72.20
2018-01-27T12:02:20.861Z,66.97
2018-01-27T12:04:48.508Z,73.60
2018-01-27T12:07:16.051Z,81.97
2018-01-27T12:09:43.589Z,75.27
2018-01-27T12:12:11.954Z,76.47
2018-01-27T12:14:39.612Z,84.03
2018-01-27T12:17:07.292Z,84.87
2018-01-27T12:19:34.815Z,84.33
2018-01-27T12:22:02.353Z,79.30
2018-01-27T12:24:30.682Z,74.80
2018-01-27T12:26:58.242Z,77.27
2018-01-27T12:29:26.532Z,74.07
2018-01-27T12:31:54.867Z,79.97
2018-01-27T12:34:22.383Z,59.80
2018-01-27T12:36:50.715Z,73.23
2018-01-27T12:39:18.321Z,75.20
2018-01-27T12:41:45.928Z,68.40
2018-01-27T12:44:13.472Z,74.90
2018-01-27T12:46:41.771Z,65.20
2018-01-27T12:49:10.082Z,60.63
2018-01-27T12:51:37.645Z,59.57
2018-01-27T12:54:05.179Z,57.50
2018-01-27T12:56:32.774Z,63.03
2018-01-27T12:59:00.294Z,53.33
2018-01-27T13:01:27.834Z,60.77
2018-01-27T13:03:55.394Z,59.27
2018-01-27T13:06:22.939Z,62.60
2018-01-27T13:08:50.521Z,56.77
2018-01-27T13:11:18.260Z,60.70
2018-01-27T13:13:45.800Z,71.03
2018-01-27T13:16:13.348Z,55.73
2018-01-27T13:18:40.897Z,58.53
2018-01-27T13:21:09.237Z,55.57
2018-01-27T13:23:36.775Z,53.23
2018-01-27T13:26:04.308Z,57.57
2018-01-27T13:28:31.849Z,50.80
2018-01-27T13:31:00.246Z,54.73
2018-01-27T13:33:28.546Z,55.10
2018-01-27T13:35:56.092Z,51.40
2018-01-27T13:38:23.606Z,77.37
2018-01-27T13:40:51.157Z,49.27
2018-01-27T13:43:18.743Z,57.03
2018-01-27T13:45:46.343Z,54.00
2018-01-27T13:48:13.990Z,48.20
2018-01-27T13:50:41.521Z,51.37
2018-01-27T13:53:09.051Z,51.60
2018-01-27T13:55:37.382Z,48.83
2018-01-27T13:58:05.770Z,58.50
2018-01-27T14:00:33.348Z,41.73
2018-01-27T14:03:01.677Z,44.20
2018-01-27T14:05:29.220Z,47.97
2018-01-27T14:07:57.557Z,48.60
2018-01-27T14:10:25.101Z,45.07
2018-01-27T14:12:53.440Z,48.20
2018-01-27T14:15:21.086Z,49.80
2018-01-27T14:17:48.626Z,45.73
2018-01-27T14:20:16.416Z,56.83
2018-01-27T14:22:44.055Z,42.13
2018-01-27T14:25:12.392Z,42.03
2018-01-27T14:27:39.928Z,42.00
2018-01-27T14:30:07.476Z,52.07
2018-01-27T14:32:35.076Z,45.97
2018-01-27T14:35:02.640Z,42.60
2018-01-27T14:37:30.188Z,45.83
2018-01-27T14:39:57.932Z,42.60
2018-01-27T14:42:25.558Z,43.50
2018-01-27T14:44:53.157Z,41.63
2018-01-27T14:47:21.771Z,45.87
2018-01-27T14:49:49.307Z,48.53
2018-01-27T14:52:16.945Z,45.20
2018-01-27T14:54:44.484Z,51.93
2018-01-27T14:57:12.822Z,46.40
2018-01-27T14:59:40.412Z,49.70
2018-01-27T15:02:08.719Z,48.87
2018-01-27T15:04:36.282Z,51.03
2018-01-27T15:07:03.839Z,48.77
2018-01-27T15:09:31.405Z,49.03
2018-01-27T15:11:58.984Z,46.60
2018-01-27T15:14:27.400Z,50.20
2018-01-27T15:16:54.996Z,48.07
2018-01-27T15:19:23.325Z,39.83
2018-01-27T15:21:50.841Z,43.30
2018-01-27T15:24:18.529Z,50.90
2018-01-27T15:26:46.902Z,48.10
2018-01-27T15:29:14.459Z,51.23
2018-01-27T15:31:42.773Z,50.40
2018-01-27T15:34:10.403Z,51.07
2018-01-27T15:36:37.968Z,62.30
2018-01-27T15:39:05.708Z,59.50
2018-01-27T15:41:34.053Z,51.93
2018-01-27T15:44:01.609Z,59.37
2018-01-27T15:46:29.928Z,51.50
2018-01-27T15:48:57.477Z,57.60
2018-01-27T15:51:25.032Z,56.97
2018-01-27T15:53:52.579Z,61.80
2018-01-27T15:56:20.935Z,53.87
2018-01-27T15:58:48.467Z,56.17
2018-01-27T16:01:16.089Z,43.20
2018-01-27T16:03:43.648Z,48.10
2018-01-27T16:06:11.212Z,63.43
2018-01-27T16:08:39.532Z,59.77
2018-01-27T16:11:07.120Z,57.97
2018-01-27T16:13:34.656Z,67.63
2018-01-27T16:16:02.206Z,63.23
2018-01-27T16:18:29.769Z,67.20
2018-01-27T16:20:57.352Z,60.20
2018-01-27T16:23:24.892Z,75.40
2018-01-27T16:25:52.495Z,71.67
2018-01-27T16:28:20.047Z,67.00
2018-01-27T16:30:47.581Z,75.20
2018-01-27T16:33:15.929Z,80.53
2018-01-27T16:35:43.462Z,73.57
2018-01-27T16:38:11.756Z,78.07
2018-01-27T16:40:39.329Z,75.30
2018-01-27T16:43:06.920Z,83.53
2018-01-27T16:45:34.467Z,87.00
2018-01-27T16:48:02.069Z,81.73
2018-01-27T16:50:29.656Z,86.80
2018-01-27T16:52:57.207Z,84.40
2018-01-27T16:55:24.802Z,92.63
2018-01-27T16:57:52.398Z,84.13
2018-01-27T17:00:20.071Z,92.00
2018-01-27T17:02:47.656Z,83.40
2018-01-27T17:05:15.201Z,92.80
2018-01-27T17:07:42.726Z,85.87
2018-01-27T17:10:10.321Z,80.73
2018-01-27T17:12:38.680Z,85.33
2018-01-27T17:15:07.015Z,81.73
2018-01-27T17:17:34.557Z,80.20
2018-01-27T17:20:02.148Z,91.77
2018-01-27T17:22:30.478Z,87.97
2018-01-27T17:24:58.072Z,94.50
2018-01-27T17:27:25.604Z,93.87
2018-01-27T17:29:53.153Z,90.50
2018-01-27T17:32:20.763Z,91.80
2018-01-27T17:34:48.348Z,97.87
2018-01-27T17:37:15.922Z,94.30
2018-01-27T17:39:43.474Z,90.63
2018-01-27T17:42:11.121Z,97.10
2018-01-27T17:44:38.673Z,94.13
2018-01-27T17:47:06.193Z,100.70
2018-01-27T17:49:33.719Z,104.53
2018-01-27T17:52:01.266Z,101.70
2018-01-27T17:54:29.562Z,102.57
2018-01-27T17:56:57.103Z,100.47
2018-01-27T17:59:24.660Z,98.33
2018-01-27T18:01:52.960Z,95.70
2018-01-27T18:04:20.807Z,101.47
2018-01-27T18:06:48.447Z,97.40
2018-01-27T18:09:16.752Z,108.17
2018-01-27T18:11:45.105Z,94.47
2018-01-27T18:14:12.735Z,102.17
2018-01-27T18:16:40.324Z,107.60
2018-01-27T18:19:07.903Z,100.60
2018-01-27T18:21:35.442Z,94.70
2018-01-27T18:24:02.963Z,96.37
2018-01-27T18:26:30.535Z,101.37
2018-01-27T18:28:58.088Z,107.77
2018-01-27T18:31:25.609Z,106.67
2018-01-27T18:33:53.212Z,99.80
2018-01-27T18:36:20.803Z,98.80
2018-01-27T18:38:49.141Z,97.63
2018-01-27T18:41:16.971Z,94.53
2018-01-27T18:43:44.525Z,93.70
2018-01-27T18:46:12.842Z,87.80
2018-01-27T18:48:40.411Z,97.67
2018-01-27T18:51:07.985Z,88.90
2018-01-27T18:53:36.402Z,92.67
2018-01-27T18:56:04.685Z,96.70
2018-01-27T18:58:32.293Z,87.17
2018-01-27T19:01:00.691Z,103.67
2018-01-27T19:03:28.989Z,96.93
2018-01-27T19:05:57.339Z,90.00
2018-01-27T19:08:24.877Z,86.63
2018-01-27T19:10:53.169Z,82.63
2018-01-27T19:13:21.608Z,83.97
2018-01-27T19:15:49.172Z,84.57
2018-01-27T19:18:16.782Z,79.37
2018-01-27T19:20:44.333Z,78.90
2018-01-27T19:23:12.648Z,87.87
2018-01-27T19:25:41.124Z,80.87
2018-01-27T19:28:08.793Z,88.83
2018-01-27T19:30:36.344Z,85.10
2018-01-27T19:33:03.889Z,83.67
2018-01-27T19:35:31.767Z,90.80
2018-01-27T19:37:59.312Z,89.73
2018-01-27T19:40:26.915Z,83.80
2018-01-27T19:42:54.504Z,98.87
2018-01-27T19:45:22.283Z,91.93
2018-01-27T19:47:49.840Z,75.43
2018-01-27T19:50:17.570Z,83.10
2018-01-27T19:52:45.213Z,89.10
2018-01-27T19:55:12.786Z,82.57
2018-01-27T19:57:40.506Z,88.37
2018-01-27T20:00:08.824Z,79.30
2018-01-27T20:02:36.368Z,74.03
2018-01-27T20:05:03.946Z,69.40
2018-01-27T20:07:31.535Z,100.07
2018-01-27T20:09:59.127Z,72.80
2018-01-27T20:12:26.801Z,72.40
2018-01-27T20:14:54.365Z,73.33
2018-01-27T20:17:21.956Z,79.10
2018-01-27T20:19:50.289Z,75.27
2018-01-27T20:22:17.868Z,73.60
2018-01-27T20:24:45.476Z,67.30
2018-01-27T20:27:13.778Z,73.80
2018-01-27T20:29:41.313Z,66.20
2018-01-27T20:32:08.873Z,73.03
2018-01-27T20:34:36.423Z,70.07
2018-01-27T20:37:04.739Z,64.23
2018-01-27T20:39:33.086Z,72.93
2018-01-27T20:42:00.645Z,70.60
2018-01-27T20:44:28.180Z,67.50
2018-01-27T20:46:55.737Z,62.00
2018-01-27T20:49:24.030Z,66.47
2018-01-27T20:51:55.499Z,60.20
2018-01-27T20:54:23.066Z,68.97
2018-01-27T20:56:51.389Z,69.50
2018-01-27T20:59:18.998Z,65.40
2018-01-27T21:01:46.568Z,68.17
2018-01-27T21:04:14.118Z,65.17
2018-01-27T21:06:42.436Z,73.30
2018-01-27T21:09:10.789Z,58.47
2018-01-27T21:11:38.361Z,69.37
2018-01-27T21:14:05.929Z,73.80
2018-01-27T21:16:33.498Z,68.77
2018-01-27T21:19:01.250Z,71.60
2018-01-27T21:21:28.819Z,65.60
2018-01-27T21:23:56.383Z,61.53
2018-01-27T21:26:23.968Z,69.30
2018-01-27T21:28:51.561Z,75.30
2018-01-27T21:31:19.270Z,65.03
2018-01-27T21:33:46.970Z,63.90
2018-01-27T21:36:14.537Z,62.10
2018-01-27T21:38:42.837Z,69.63
2018-01-27T21:41:11.211Z,71.03
2018-01-27T21:43:39.530Z,74.13
2018-01-27T21:46:07.855Z,63.23
2018-01-27T21:48:35.421Z,65.97
2018-01-27T21:51:02.959Z,67.03
2018-01-27T21:53:30.520Z,60.23
2018-01-27T21:55:58.078Z,65.53
2018-01-27T21:58:26.373Z,67.90
2018-01-27T22:00:53.904Z,65.90
2018-01-27T22:03:31.958Z,69.20
2018-01-27T22:05:59.473Z,63.83
2018-01-27T22:08:27.037Z,65.27
2018-01-27T22:10:55.556Z,62.80
2018-01-27T22:13:23.085Z,63.83
2018-01-27T22:15:50.611Z,63.77
2018-01-27T22:18:18.192Z,67.40
2018-01-27T22:20:45.729Z,67.57
2018-01-27T22:23:14.029Z,70.70
2018-01-27T22:25:42.480Z,63.80
2018-01-27T22:28:10.025Z,67.97
2018-01-27T22:30:37.565Z,70.17
2018-01-27T22:33:05.132Z,65.47
2018-01-27T22:35:32.679Z,68.67
2018-01-27T22:38:00.236Z,73.47
2018-01-27T22:40:27.816Z,70.40
2018-01-27T22:42:55.335Z,69.03
2018-01-27T22:45:23.642Z,64.90
2018-01-27T22:47:52.316Z,71.40
2018-01-27T22:50:19.845Z,73.60
2018-01-27T22:52:48.180Z,77.90
2018-01-27T22:55:15.763Z,78.40
2018-01-27T22:57:43.323Z,80.63
2018-01-27T23:00:11.657Z,74.33
2018-01-27T23:02:39.303Z,78.70
2018-01-27T23:05:07.731Z,79.17
2018-01-27T23:07:35.353Z,73.77
2018-01-27T23:10:02.938Z,75.63
2018-01-27T23:12:30.484Z,74.80
2018-01-27T23:14:58.791Z,81.13
2018-01-27T23:17:27.194Z,70.57
2018-01-27T23:19:55.494Z,79.40
2018-01-27T23:22:25.255Z,77.67
2018-01-27T23:24:52.872Z,79.10
2018-01-27T23:27:20.418Z,79.67
2018-01-27T23:29:48.067Z,74.73
2018-01-27T23:32:16.410Z,74.10
2018-01-27T23:34:43.967Z,72.43
2018-01-27T23:37:12.257Z,82.90
2018-01-27T23:39:39.843Z,69.43
2018-01-27T23:42:07.367Z,74.93
2018-01-27T23:44:34.920Z,70.07
2018-01-27T23:47:02.468Z,71.43
2018-01-27T23:49:30.009Z,76.83
2018-01-27T23:51:58.451Z,72.17
2018-01-27T23:54:26.055Z,63.33
2018-01-27T23:56:53.591Z,77.27
2018-01-27T23:59:21.982Z,66.33
